Time;durP1;ratioP1;P1;durP2;ratioP2;P2;SDS_P1;SDS_P2;PMS_P1;PMS_P2;Temp;Humidity;BMP_temperature;BMP_pressure;BME280_temperature;BME280_humidity;BME280_pressure;Samples;Min_cycle;Max_cycle;Signal;HPM_P1;HPM_P2
2021/07/09 00:01:14;;;;;;;14.60;5.88;;;;;;;17.13;83.15;101839.41;5089014;28;20048;-64
2021/07/09 00:03:29;;;;;;;15.98;6.40;;;;;;;17.14;83.10;101830.38;5087858;28;20097;-65
2021/07/09 00:05:55;;;;;;;15.18;6.18;;;;;;;17.08;83.41;101834.56;5089717;28;20377;-64
2021/07/09 00:08:22;;;;;;;12.50;6.47;;;;;;;17.07;83.45;101835.56;5071825;28;20044;-65
2021/07/09 00:10:49;;;;;;;14.70;6.22;;;;;;;17.04;83.87;101824.34;5072055;28;20674;-66
2021/07/09 00:13:15;;;;;;;14.30;6.70;;;;;;;17.04;84.18;101829.72;5071558;28;20040;-66
2021/07/09 00:15:42;;;;;;;11.75;6.43;;;;;;;17.08;83.60;101820.31;5088228;28;20040;-65
2021/07/09 00:18:10;;;;;;;14.55;6.78;;;;;;;17.07;84.00;101826.69;5088091;28;20078;-65
2021/07/09 00:20:36;;;;;;;17.98;6.72;;;;;;;17.13;83.40;101827.84;5071393;28;20040;-65
2021/07/09 00:23:04;;;;;;;19.90;6.93;;;;;;;17.09;83.66;101827.38;5071634;28;20519;-65
2021/07/09 00:25:30;;;;;;;14.45;6.53;;;;;;;17.16;82.99;101832.88;5088292;28;20400;-65
2021/07/09 00:27:57;;;;;;;12.73;6.78;;;;;;;17.25;82.68;101838.06;5087831;28;20048;-66
2021/07/09 00:30:24;;;;;;;15.07;7.10;;;;;;;17.21;83.29;101842.09;5071279;28;20400;-65
2021/07/09 00:32:51;;;;;;;12.93;6.95;;;;;;;17.21;83.28;101841.25;5088224;28;20040;-66
2021/07/09 00:35:17;;;;;;;17.02;6.85;;;;;;;17.24;83.31;101839.03;5087709;28;20062;-66
2021/07/09 00:37:44;;;;;;;13.90;6.57;;;;;;;17.22;83.45;101832.19;5089093;28;20067;-65
2021/07/09 00:40:11;;;;;;;13.35;7.03;;;;;;;17.23;83.74;101840.06;5087852;28;20530;-66
2021/07/09 00:42:38;;;;;;;15.25;6.82;;;;;;;17.24;83.71;101843.56;5088784;28;20520;-66
2021/07/09 00:45:07;;;;;;;13.77;7.13;;;;;;;17.23;83.80;101841.91;5086823;28;20508;-65
2021/07/09 00:47:34;;;;;;;17.48;6.95;;;;;;;17.22;83.78;101842.91;5089141;28;20564;-66
2021/07/09 00:50:03;;;;;;;13.63;7.38;;;;;;;17.21;83.91;101836.72;5087622;28;20047;-65
2021/07/09 00:52:30;;;;;;;15.88;7.10;;;;;;;17.25;84.20;101837.22;5088980;28;20046;-65
2021/07/09 00:54:57;;;;;;;14.80;7.53;;;;;;;17.25;83.73;101837.22;5087858;28;20115;-65
2021/07/09 00:57:26;;;;;;;15.45;6.97;;;;;;;17.23;84.10;101826.66;5075754;28;20120;-65
2021/07/09 00:59:53;;;;;;;17.48;7.00;;;;;;;17.22;83.91;101830.34;5074118;28;20129;-65
2021/07/09 01:02:20;;;;;;;14.27;6.82;;;;;;;17.30;83.80;101828.66;5075137;28;20045;-66
2021/07/09 01:04:47;;;;;;;13.10;6.43;;;;;;;17.29;83.63;101827.00;5074012;28;20044;-65
2021/07/09 01:07:14;;;;;;;14.27;6.38;;;;;;;17.25;83.33;101830.00;5057255;28;20049;-65
2021/07/09 01:09:40;;;;;;;13.73;6.43;;;;;;;17.27;83.19;101827.16;5057466;28;20142;-66
2021/07/09 01:12:08;;;;;;;14.43;6.00;;;;;;;17.27;83.18;101825.31;5073517;28;20040;-65
2021/07/09 01:14:36;;;;;;;16.35;6.40;;;;;;;17.30;82.80;101820.59;5070786;28;20032;-65
2021/07/09 01:17:03;;;;;;;17.70;6.25;;;;;;;17.31;82.57;101823.13;5057470;28;20396;-66
2021/07/09 01:19:30;;;;;;;13.45;6.25;;;;;;;17.27;82.79;101821.78;5073834;28;20081;-65
2021/07/09 01:21:57;;;;;;;14.18;6.65;;;;;;;17.30;82.62;101823.28;5073430;28;20046;-65
2021/07/09 01:24:24;;;;;;;16.33;6.60;;;;;;;17.26;82.46;101822.78;5074873;28;20124;-65
2021/07/09 01:26:51;;;;;;;16.23;7.32;;;;;;;17.25;82.79;101824.66;5073194;28;20055;-65
2021/07/09 01:29:18;;;;;;;19.77;7.05;;;;;;;17.22;82.49;101816.94;5074595;28;20127;-65
2021/07/09 01:31:45;;;;;;;13.73;6.50;;;;;;;17.22;82.83;101821.47;5057274;28;20468;-65
2021/07/09 01:34:12;;;;;;;15.43;6.72;;;;;;;17.21;82.95;101815.28;5074693;28;20098;-65
2021/07/09 01:36:39;;;;;;;17.80;6.72;;;;;;;17.21;82.35;101811.78;5074558;28;20492;-65
2021/07/09 01:39:05;;;;;;;16.45;6.80;;;;;;;17.20;82.62;101815.44;5074094;28;20123;-65
2021/07/09 01:41:32;;;;;;;14.90;7.13;;;;;;;17.20;82.21;101810.91;5074449;28;20044;-65
2021/07/09 01:44:01;;;;;;;19.55;7.20;;;;;;;17.13;82.51;101814.47;5040181;28;20113;-65
2021/07/09 01:46:30;;;;;;;16.90;6.90;;;;;;;17.22;82.60;101810.75;5073136;28;20067;-66
2021/07/09 01:48:57;;;;;;;16.85;6.93;;;;;;;17.40;82.33;101810.53;5073056;28;20119;-65
2021/07/09 01:51:24;;;;;;;13.20;6.38;;;;;;;17.26;82.69;101806.69;5073417;28;20051;-66
2021/07/09 01:53:51;;;;;;;14.35;6.43;;;;;;;17.18;83.06;101807.56;5072904;28;20067;-65
2021/07/09 01:56:17;;;;;;;18.20;6.55;;;;;;;17.27;82.73;101805.72;5073258;28;20036;-65
2021/07/09 01:58:44;;;;;;;17.70;6.90;;;;;;;17.17;83.02;101807.72;5072108;28;20064;-65
2021/07/09 02:01:11;;;;;;;20.50;6.63;;;;;;;17.21;83.21;101801.88;5072928;28;20404;-65
2021/07/09 02:03:38;;;;;;;19.98;7.80;;;;;;;17.34;83.17;101800.50;5074076;28;20090;-65
2021/07/09 02:06:04;;;;;;;18.23;9.25;;;;;;;17.19;83.43;101795.00;5072670;28;20043;-65
2021/07/09 02:08:31;;;;;;;18.70;8.60;;;;;;;17.13;83.65;101793.00;5038447;28;20064;-65
2021/07/09 02:10:58;;;;;;;20.15;8.25;;;;;;;17.11;83.99;101781.63;5074093;28;20041;-65
2021/07/09 02:13:24;;;;;;;19.63;8.18;;;;;;;17.12;84.04;101784.13;5072490;28;20078;-65
2021/07/09 02:15:51;;;;;;;22.90;9.23;;;;;;;17.12;84.38;101785.97;5072671;28;20488;-65
2021/07/09 02:18:18;;;;;;;23.55;8.75;;;;;;;17.15;84.17;101782.94;5072606;28;20072;-65
2021/07/09 02:20:45;;;;;;;22.95;8.70;;;;;;;17.11;84.45;101790.50;5073446;28;20041;-65
2021/07/09 02:23:15;;;;;;;16.75;8.25;;;;;;;17.09;84.36;101789.84;5073692;28;20445;-65
2021/07/09 02:25:42;;;;;;;17.75;7.72;;;;;;;17.06;84.62;101790.16;5073569;28;20040;-66
2021/07/09 02:28:09;;;;;;;14.85;7.93;;;;;;;17.05;84.67;101786.66;5073381;28;20132;-65
2021/07/09 02:30:36;;;;;;;19.48;8.75;;;;;;;17.30;83.71;101775.88;5072434;28;20064;-65
2021/07/09 02:33:04;;;;;;;17.20;8.73;;;;;;;17.23;84.00;101789.13;5073498;28;20040;-64
2021/07/09 02:35:37;;;;;;;22.70;9.30;;;;;;;17.18;83.95;101794.16;5070409;28;20106;-65
2021/07/09 02:38:06;;;;;;;17.48;9.00;;;;;;;17.10;84.71;101796.03;5072018;28;20075;-65
2021/07/09 02:40:35;;;;;;;17.60;8.52;;;;;;;17.07;84.89;101797.22;5073578;28;20040;-64
2021/07/09 02:43:04;;;;;;;21.23;9.75;;;;;;;17.08;84.96;101797.03;5088548;28;20051;-65
2021/07/09 02:45:31;;;;;;;20.58;9.02;;;;;;;17.07;84.86;101794.53;5072886;28;20070;-65
2021/07/09 02:48:10;;;;;;;20.85;9.27;;;;;;;17.20;84.24;101794.81;5057336;28;20044;-65
2021/07/09 02:50:37;;;;;;;18.40;9.05;;;;;;;17.17;84.02;101794.34;5071958;28;20373;-65
2021/07/09 02:53:04;;;;;;;21.67;8.98;;;;;;;17.11;84.62;101795.84;5073105;28;20124;-65
2021/07/09 02:55:30;;;;;;;21.13;9.55;;;;;;;17.09;84.46;101797.88;5073672;28;20063;-65
2021/07/09 02:57:57;;;;;;;21.52;9.20;;;;;;;17.12;84.37;101802.91;5072744;28;20045;-65
2021/07/09 03:00:24;;;;;;;19.17;9.05;;;;;;;17.07;84.74;101808.75;5071259;28;20462;-65
2021/07/09 03:02:50;;;;;;;20.45;8.95;;;;;;;17.03;84.44;101802.06;5071773;28;20443;-65
2021/07/09 03:05:17;;;;;;;19.75;9.23;;;;;;;17.15;84.45;101799.03;5072939;28;20040;-65
2021/07/09 03:07:44;;;;;;;19.92;9.32;;;;;;;17.18;83.74;101802.19;5073023;28;20048;-64
2021/07/09 03:10:11;;;;;;;21.85;9.93;;;;;;;17.27;83.57;101800.34;5071663;28;20044;-65
2021/07/09 03:12:40;;;;;;;20.05;10.95;;;;;;;17.56;81.23;101799.72;5071882;28;20554;-65
2021/07/09 03:15:09;;;;;;;27.55;11.68;;;;;;;17.32;82.52;101791.75;5069798;28;20045;-65
2021/07/09 03:17:36;;;;;;;26.40;12.57;;;;;;;17.24;82.83;101789.94;5052613;28;20394;-65
2021/07/09 03:20:06;;;;;;;31.98;12.45;;;;;;;17.07;83.11;101791.84;5052677;28;20047;-65
2021/07/09 03:22:34;;;;;;;26.52;14.80;;;;;;;17.05;83.25;101796.56;5051363;28;20049;-65
2021/07/09 03:25:01;;;;;;;27.95;14.52;;;;;;;17.05;83.14;101791.19;5052684;28;20053;-65
2021/07/09 03:27:27;;;;;;;28.98;16.05;;;;;;;17.11;83.01;101790.50;5065387;28;20068;-65
2021/07/09 03:29:54;;;;;;;39.45;16.60;;;;;;;17.10;82.92;101793.34;5071171;28;20485;-65
2021/07/09 03:32:21;;;;;;;38.63;18.90;;;;;;;17.23;81.63;101797.16;5072677;28;20051;-65
2021/07/09 03:34:48;;;;;;;34.58;18.80;;;;;;;17.09;81.89;101789.84;5071631;28;20519;-65
2021/07/09 03:37:14;;;;;;;40.78;20.65;;;;;;;17.12;81.81;101799.38;5072354;28;20536;-65
2021/07/09 03:39:42;;;;;;;34.95;19.92;;;;;;;17.06;82.00;101791.03;5072558;28;20050;-65
2021/07/09 03:42:09;;;;;;;34.72;19.70;;;;;;;17.09;81.88;101789.84;5070915;28;20044;-65
2021/07/09 03:44:36;;;;;;;33.88;19.48;;;;;;;17.13;82.32;101775.06;5054201;28;20461;-65
2021/07/09 03:47:03;;;;;;;33.13;19.67;;;;;;;17.10;82.52;101780.78;5069644;28;20068;-65
2021/07/09 03:49:30;;;;;;;33.38;18.98;;;;;;;17.14;82.40;101783.97;5070940;28;20404;-65
2021/07/09 03:51:56;;;;;;;36.40;20.55;;;;;;;17.00;82.24;101785.50;5071488;28;20040;-65
2021/07/09 03:54:23;;;;;;;38.03;20.63;;;;;;;16.95;82.70;101794.03;5038186;28;20136;-65
2021/07/09 03:56:50;;;;;;;43.17;21.23;;;;;;;16.99;82.85;101798.06;5071434;28;20119;-65
2021/07/09 03:59:16;;;;;;;43.85;21.50;;;;;;;17.10;81.94;101802.25;5071921;28;20064;-65
2021/07/09 04:01:44;;;;;;;34.58;21.02;;;;;;;17.06;82.31;101799.06;5071088;28;20592;-66
2021/07/09 04:04:10;;;;;;;40.20;21.50;;;;;;;17.13;81.55;101796.50;5072396;28;20504;-65
2021/07/09 04:06:37;;;;;;;46.38;20.98;;;;;;;17.12;81.89;101792.19;5071196;28;20548;-65
2021/07/09 04:09:04;;;;;;;35.75;21.15;;;;;;;17.06;82.11;101796.38;5020983;28;20075;-65
2021/07/09 04:11:30;;;;;;;40.78;20.88;;;;;;;17.04;82.35;101800.22;5070970;28;20052;-66
2021/07/09 04:13:57;;;;;;;39.05;22.23;;;;;;;17.01;82.03;101806.78;5054220;28;20041;-65
2021/07/09 04:16:24;;;;;;;35.03;20.95;;;;;;;17.00;81.99;101802.41;5071145;28;20560;-65
2021/07/09 04:18:51;;;;;;;37.08;20.40;;;;;;;17.16;81.91;101804.22;5072025;28;20056;-65
2021/07/09 04:21:18;;;;;;;34.70;19.95;;;;;;;17.11;82.26;101800.38;5070692;28;20139;-65
2021/07/09 04:23:44;;;;;;;33.28;20.02;;;;;;;17.16;82.45;101798.03;5071720;28;20535;-65
2021/07/09 04:26:14;;;;;;;37.47;21.50;;;;;;;17.31;81.64;101800.84;5070682;28;20535;-66
2021/07/09 04:28:40;;;;;;;39.28;20.98;;;;;;;17.18;81.31;101802.19;5070449;28;20045;-66
2021/07/09 04:31:07;;;;;;;39.90;21.25;;;;;;;17.26;81.25;101804.03;5072560;28;20128;-66
2021/07/09 04:33:34;;;;;;;42.08;21.52;;;;;;;17.33;80.35;101807.69;5054933;28;20036;-65
2021/07/09 04:36:01;;;;;;;33.88;20.23;;;;;;;17.34;80.36;101812.06;5056121;28;20178;-64
2021/07/09 04:38:27;;;;;;;36.70;21.15;;;;;;;17.38;80.29;101812.53;5055320;28;20045;-66
2021/07/09 04:40:54;;;;;;;37.10;20.90;;;;;;;17.25;81.31;101808.56;5054240;28;20135;-66
2021/07/09 04:43:21;;;;;;;35.25;21.30;;;;;;;17.17;81.80;101810.41;5037666;28;20051;-64
2021/07/09 04:45:48;;;;;;;39.25;21.88;;;;;;;17.29;81.13;101810.91;5054169;28;20045;-63
2021/07/09 04:48:14;;;;;;;38.92;21.52;;;;;;;17.37;81.11;101806.34;5067145;28;20041;-64
2021/07/09 04:50:41;;;;;;;44.22;22.50;;;;;;;17.45;80.01;101817.03;5075372;28;20123;-64
2021/07/09 04:53:08;;;;;;;36.60;21.30;;;;;;;17.40;80.00;101818.56;5051512;28;20053;-63
2021/07/09 04:55:35;;;;;;;46.58;21.25;;;;;;;17.34;80.77;101809.38;5075187;28;20044;-64
2021/07/09 04:58:03;;;;;;;45.38;22.15;;;;;;;17.36;81.00;101818.06;5057244;28;20505;-64
2021/07/09 05:00:29;;;;;;;46.83;22.60;;;;;;;17.33;80.60;101815.72;5074105;28;20441;-63
2021/07/09 05:02:58;;;;;;;42.65;22.55;;;;;;;17.34;80.15;101812.06;5073754;28;20045;-64
2021/07/09 05:05:25;;;;;;;40.53;24.02;;;;;;;17.30;80.52;101804.50;5074908;28;20051;-64
2021/07/09 05:07:52;;;;;;;37.15;22.38;;;;;;;17.30;80.95;101809.88;5073962;28;20071;-64
2021/07/09 05:10:19;;;;;;;38.83;23.20;;;;;;;17.37;80.60;101810.84;5074942;28;20123;-64
2021/07/09 05:12:46;;;;;;;38.65;22.58;;;;;;;17.49;80.33;101811.34;5074728;28;20203;-64
2021/07/09 05:15:13;;;;;;;40.63;23.35;;;;;;;17.53;79.85;101815.34;5075201;28;20040;-64
2021/07/09 05:17:42;;;;;;;45.85;23.30;;;;;;;17.53;80.09;101820.69;5058628;28;20059;-64
2021/07/09 05:20:10;;;;;;;38.45;23.20;;;;;;;17.37;80.27;101814.41;5054697;28;20052;-64
2021/07/09 05:22:37;;;;;;;38.03;23.42;;;;;;;17.31;80.29;101816.94;5066748;28;20044;-64
2021/07/09 05:25:04;;;;;;;34.72;22.63;;;;;;;17.45;80.07;101813.53;5073682;28;20044;-64
2021/07/09 05:27:31;;;;;;;41.75;22.95;;;;;;;17.37;80.66;101814.41;5053409;28;20388;-64
2021/07/09 05:29:59;;;;;;;41.22;22.27;;;;;;;17.35;80.12;101810.19;5054409;28;20068;-64
2021/07/09 05:32:28;;;;;;;36.15;23.00;;;;;;;17.35;80.83;101816.38;5054443;28;20065;-64
2021/07/09 05:34:56;;;;;;;42.40;23.42;;;;;;;17.33;81.15;101818.41;5053717;28;20040;-65
2021/07/09 05:37:23;;;;;;;39.33;22.67;;;;;;;17.31;80.42;101823.13;5036798;28;20039;-65
2021/07/09 05:39:51;;;;;;;40.05;23.75;;;;;;;17.19;81.13;101825.34;5054576;28;20045;-65
2021/07/09 05:42:18;;;;;;;43.63;23.67;;;;;;;17.23;80.51;101826.66;5054102;28;20064;-65
2021/07/09 05:44:45;;;;;;;44.75;25.08;;;;;;;17.18;80.95;101826.34;5054153;28;20087;-65
2021/07/09 05:47:12;;;;;;;43.13;24.35;;;;;;;17.21;80.91;101826.00;5068887;28;20040;-65
2021/07/09 05:49:40;;;;;;;41.67;25.02;;;;;;;17.24;80.84;101822.97;5073249;28;20044;-64
2021/07/09 05:52:07;;;;;;;42.63;25.45;;;;;;;17.24;81.04;101825.63;5056532;28;20144;-64
2021/07/09 05:54:34;;;;;;;39.63;24.60;;;;;;;17.28;80.87;101826.13;5072999;28;20078;-64
2021/07/09 05:57:02;;;;;;;42.35;24.35;;;;;;;17.26;81.18;101837.06;5056562;28;20048;-64
2021/07/09 05:59:29;;;;;;;45.92;26.30;;;;;;;17.30;81.05;101839.38;5073510;28;20124;-65
2021/07/09 06:01:56;;;;;;;50.92;26.85;;;;;;;17.36;80.85;101839.53;5073985;28;20079;-65
2021/07/09 06:04:23;;;;;;;49.70;27.20;;;;;;;17.31;80.89;101838.38;5072875;28;20068;-65
2021/07/09 06:06:51;;;;;;;43.75;26.08;;;;;;;17.39;80.47;101838.34;5072942;28;20036;-64
2021/07/09 06:09:17;;;;;;;49.63;26.27;;;;;;;17.60;80.48;101837.78;5072467;28;20510;-65
2021/07/09 06:11:44;;;;;;;42.70;26.58;;;;;;;17.58;80.29;101846.00;5072818;28;20075;-64
2021/07/09 06:14:11;;;;;;;43.33;26.85;;;;;;;17.49;80.44;101847.03;5071887;28;20139;-65
2021/07/09 06:16:38;;;;;;;54.67;27.38;;;;;;;17.54;80.70;101847.34;5073727;28;20040;-64
2021/07/09 06:19:05;;;;;;;53.40;25.58;;;;;;;17.58;79.89;101843.31;5073521;28;20068;-64
2021/07/09 06:21:32;;;;;;;56.67;27.52;;;;;;;17.60;80.46;101845.81;5073963;28;20556;-64
2021/07/09 06:23:59;;;;;;;43.78;26.27;;;;;;;17.64;80.13;101852.50;5072126;28;20041;-64
2021/07/09 06:26:26;;;;;;;42.75;26.27;;;;;;;17.69;80.56;101852.81;5067322;28;20051;-64
2021/07/09 06:28:53;;;;;;;42.85;25.95;;;;;;;17.76;79.69;101858.34;5071644;28;20070;-64
2021/07/09 06:31:20;;;;;;;44.75;25.98;;;;;;;17.76;79.75;101856.50;5073522;28;20487;-64
2021/07/09 06:33:47;;;;;;;45.45;26.45;;;;;;;17.85;79.92;101860.00;5073432;28;20106;-64
2021/07/09 06:36:14;;;;;;;49.15;25.90;;;;;;;18.10;79.01;101857.19;5073580;28;20040;-64
2021/07/09 06:38:43;;;;;;;48.20;27.48;;;;;;;18.05;79.63;101862.28;5072063;28;20048;-64
2021/07/09 06:41:10;;;;;;;44.10;26.70;;;;;;;18.07;78.84;101860.25;5071298;28;20407;-64
2021/07/09 06:43:36;;;;;;;41.00;26.02;;;;;;;17.95;79.41;101865.97;5072822;28;20160;-65
2021/07/09 06:46:03;;;;;;;45.50;27.55;;;;;;;18.00;79.26;101865.47;5071955;28;20045;-64
2021/07/09 06:48:30;;;;;;;52.88;28.58;;;;;;;18.03;79.39;101863.28;5055348;28;20115;-64
2021/07/09 06:50:57;;;;;;;47.70;27.73;;;;;;;18.22;78.86;101861.16;5071882;28;20045;-64
2021/07/09 06:53:23;;;;;;;49.10;26.73;;;;;;;18.26;79.16;101875.06;5073384;28;20048;-64
2021/07/09 06:55:50;;;;;;;52.40;26.95;;;;;;;18.25;78.12;101858.13;5070990;28;20044;-64
2021/07/09 06:58:17;;;;;;;51.50;28.45;;;;;;;18.21;78.13;101867.53;5072769;28;20060;-64
2021/07/09 07:00:43;;;;;;;46.00;26.63;;;;;;;18.21;78.36;101862.19;5072977;28;20052;-63
2021/07/09 07:03:10;;;;;;;52.10;26.75;;;;;;;18.21;77.47;101868.38;5071476;28;20049;-63
2021/07/09 07:05:37;;;;;;;47.33;27.38;;;;;;;18.18;77.65;101870.56;5072857;28;20068;-64
2021/07/09 07:08:16;;;;;;;49.85;26.73;;;;;;;18.09;77.52;101871.63;5071147;28;20049;-65
2021/07/09 07:10:44;;;;;;;49.97;27.90;;;;;;;18.12;77.48;101882.00;5072647;28;20036;-65
2021/07/09 07:13:11;;;;;;;54.20;27.50;;;;;;;18.11;77.29;101873.13;5069228;28;20032;-65
2021/07/09 07:15:39;;;;;;;50.90;27.52;;;;;;;18.26;77.21;101877.75;5062982;28;20131;-65
2021/07/09 07:18:08;;;;;;;45.40;26.85;;;;;;;18.15;77.45;101877.13;5063681;28;20103;-65
2021/07/09 07:20:39;;;;;;;51.03;27.58;;;;;;;18.21;77.32;101878.28;5072346;28;20123;-65
2021/07/09 07:23:06;;;;;;;44.78;24.92;;;;;;;18.22;77.56;101877.25;5071646;28;20078;-65
2021/07/09 07:25:34;;;;;;;50.30;26.08;;;;;;;18.25;77.39;101876.09;5072254;28;20337;-65
2021/07/09 07:28:01;;;;;;;49.25;25.77;;;;;;;18.34;76.80;101883.06;5069153;28;20041;-65
2021/07/09 07:30:28;;;;;;;49.55;26.15;;;;;;;18.46;76.97;101884.31;5072032;28;20429;-65
2021/07/09 07:32:55;;;;;;;47.30;25.65;;;;;;;18.59;77.08;101881.03;5071897;28;20153;-66
2021/07/09 07:35:22;;;;;;;44.40;24.40;;;;;;;18.65;75.97;101887.56;5053641;28;20040;-66
2021/07/09 07:37:50;;;;;;;41.80;24.33;;;;;;;18.74;75.57;101887.31;5071640;28;20044;-65
2021/07/09 07:40:18;;;;;;;45.97;24.13;;;;;;;18.64;75.15;101889.41;5071740;28;20044;-65
2021/07/09 07:42:45;;;;;;;45.40;25.15;;;;;;;18.60;75.44;101891.59;5071941;28;20119;-65
2021/07/09 07:45:12;;;;;;;46.58;24.45;;;;;;;18.62;75.60;101886.06;5070943;28;20139;-65
2021/07/09 07:47:39;;;;;;;43.25;23.70;;;;;;;18.69;75.18;101881.63;5072027;28;20036;-65
2021/07/09 07:50:08;;;;;;;42.78;24.65;;;;;;;18.86;74.81;101885.03;5069852;28;20043;-65
2021/07/09 07:52:34;;;;;;;46.30;24.70;;;;;;;18.93;75.58;101886.00;5054082;28;20430;-65
2021/07/09 07:55:01;;;;;;;45.72;24.48;;;;;;;18.98;73.91;101883.59;5071340;28;20374;-65
2021/07/09 07:57:28;;;;;;;42.30;24.40;;;;;;;19.05;73.73;101882.88;5065985;28;20080;-65
2021/07/09 07:59:55;;;;;;;43.50;24.65;;;;;;;19.07;74.96;101888.91;5070374;28;20044;-65
2021/07/09 08:02:22;;;;;;;50.05;25.20;;;;;;;19.08;73.53;101887.88;5070059;28;20452;-65
2021/07/09 08:04:49;;;;;;;45.78;25.65;;;;;;;19.26;72.91;101887.53;5070413;28;20052;-65
2021/07/09 08:07:16;;;;;;;48.85;26.90;;;;;;;19.29;72.99;101885.31;5050926;28;20443;-65
2021/07/09 08:09:43;;;;;;;40.30;24.10;;;;;;;19.41;72.77;101884.88;5074730;28;20067;-65
2021/07/09 08:12:10;;;;;;;45.33;24.92;;;;;;;19.46;72.58;101891.34;5075262;28;20048;-65
2021/07/09 08:14:36;;;;;;;46.03;23.80;;;;;;;19.51;72.35;101890.81;5075573;28;20047;-65
2021/07/09 08:17:05;;;;;;;42.92;24.23;;;;;;;19.59;71.51;101882.63;5074001;28;20033;-65
2021/07/09 08:19:32;;;;;;;39.42;23.52;;;;;;;19.67;72.43;101885.25;5075875;28;20079;-65
2021/07/09 08:21:59;;;;;;;48.45;24.70;;;;;;;19.73;71.44;101886.38;5074193;28;20070;-65
2021/07/09 08:24:25;;;;;;;54.30;23.83;;;;;;;19.73;70.61;101884.50;5074358;28;20119;-65
2021/07/09 08:26:53;;;;;;;39.78;22.90;;;;;;;19.72;70.53;101884.69;5074093;28;20061;-65
2021/07/09 08:29:22;;;;;;;49.50;23.63;;;;;;;19.95;70.19;101879.19;5074709;28;20033;-65
2021/07/09 08:31:50;;;;;;;41.97;22.55;;;;;;;20.12;68.72;101875.28;5056542;28;20055;-65
2021/07/09 08:34:17;;;;;;;39.58;21.92;;;;;;;20.12;69.21;101877.13;5055475;28;20063;-65
2021/07/09 08:36:44;;;;;;;48.53;22.00;;;;;;;20.09;68.70;101869.44;5073055;28;20041;-65
2021/07/09 08:39:15;;;;;;;41.08;22.02;;;;;;;20.10;66.82;101877.31;5073722;28;20032;-65
2021/07/09 08:41:44;;;;;;;38.10;20.65;;;;;;;20.08;68.01;101873.13;5083580;28;20106;-65
2021/07/09 08:44:12;;;;;;;40.13;21.88;;;;;;;19.98;68.53;101878.00;5076165;28;20056;-65
2021/07/09 08:46:39;;;;;;;43.03;21.58;;;;;;;19.96;69.26;101877.38;5086947;28;20040;-65
2021/07/09 08:49:12;;;;;;;43.00;21.50;;;;;;;19.89;69.18;101880.78;5094763;28;20440;-65
2021/07/09 08:51:39;;;;;;;46.65;20.65;;;;;;;19.92;69.59;101877.72;5069676;28;20454;-65
2021/07/09 08:54:10;;;;;;;39.20;20.63;;;;;;;19.93;70.82;101873.16;5074867;28;20043;-69
2021/07/09 08:56:37;;;;;;;40.67;20.63;;;;;;;20.02;67.93;101866.66;5066763;28;20556;-62
2021/07/09 08:59:04;;;;;;;41.22;20.42;;;;;;;19.90;68.49;101869.00;5069376;28;20041;-62
2021/07/09 09:01:50;;;;;;;39.58;20.15;;;;;;;19.74;69.30;101870.03;5065750;28;20086;-62
2021/07/09 09:04:34;;;;;;;41.47;19.38;;;;;;;19.67;69.87;101871.78;5063981;28;20040;-63
2021/07/09 09:07:04;;;;;;;40.35;20.15;;;;;;;19.82;69.52;101871.78;5072013;28;20075;-66
2021/07/09 09:09:36;;;;;;;34.53;20.80;;;;;;;19.89;67.92;101877.28;5073685;28;20483;-65
2021/07/09 09:12:10;;;;;;;40.83;21.50;;;;;;;19.75;68.30;101868.19;5075914;28;20468;-66
2021/07/09 09:14:41;;;;;;;34.95;20.63;;;;;;;19.77;69.15;101874.22;5094800;28;20119;-65
2021/07/09 09:20:17;;;;;;;46.22;20.45;;;;;;;20.09;68.51;101866.72;5068971;28;20409;-65
2021/07/09 09:25:31;;;;;;;42.40;19.48;;;;;;;20.04;70.29;101861.91;5130746;27;20375;-64
2021/07/09 09:28:08;;;;;;;35.00;18.15;;;;;;;20.19;70.38;101864.56;5129683;28;20488;-64
2021/07/09 09:30:38;;;;;;;37.35;18.58;;;;;;;20.71;68.69;101855.34;5129239;28;20047;-64
2021/07/09 09:33:08;;;;;;;32.85;17.70;;;;;;;20.86;67.62;101863.34;5091918;28;20085;-68
2021/07/09 09:35:37;;;;;;;29.88;16.67;;;;;;;20.60;68.71;101849.63;5130333;27;20093;-66
2021/07/09 09:38:08;;;;;;;34.90;17.30;;;;;;;20.79;67.63;101864.34;5113824;28;20492;-66
2021/07/09 09:40:36;;;;;;;32.13;16.67;;;;;;;20.80;67.16;101858.75;5129670;27;20043;-66
2021/07/09 09:43:09;;;;;;;36.90;17.38;;;;;;;20.74;66.73;101856.84;5115082;28;20036;-66
2021/07/09 09:45:37;;;;;;;31.38;16.25;;;;;;;20.77;67.55;101856.44;5116162;28;20445;-66
2021/07/09 09:48:06;;;;;;;35.63;18.27;;;;;;;20.56;67.07;101856.44;5129842;27;20035;-66
2021/07/09 09:50:42;;;;;;;36.00;17.70;;;;;;;20.44;67.65;101856.13;5099635;28;20059;-66
2021/07/09 09:53:09;;;;;;;31.73;16.65;;;;;;;20.52;67.21;101853.31;5129523;27;20046;-66
2021/07/09 09:55:36;;;;;;;31.42;16.33;;;;;;;20.53;66.65;101846.88;5129735;27;20444;-66
2021/07/09 09:58:14;;;;;;;28.73;15.63;;;;;;;20.75;68.04;101842.31;5095696;28;20092;-66
2021/07/09 10:00:44;;;;;;;30.85;15.90;;;;;;;21.26;64.54;101839.34;5129714;28;20055;-66
2021/07/09 10:03:19;;;;;;;28.63;15.20;;;;;;;21.43;63.48;101844.47;5114110;28;20039;-66
2021/07/09 10:05:49;;;;;;;28.13;14.73;;;;;;;21.52;63.20;101835.19;5129089;28;20043;-66
2021/07/09 10:08:19;;;;;;;28.05;13.65;;;;;;;21.49;63.41;101843.69;5124830;28;20036;-66
2021/07/09 10:10:48;;;;;;;23.75;13.23;;;;;;;21.38;62.34;101841.50;5111629;28;20063;-66
2021/07/09 10:13:17;;;;;;;24.55;13.60;;;;;;;21.24;63.88;101838.72;5123313;28;20503;-66
2021/07/09 10:15:48;;;;;;;31.10;14.27;;;;;;;21.16;64.11;101838.91;5129162;28;20522;-66
2021/07/09 10:18:16;;;;;;;31.65;14.80;;;;;;;21.25;62.49;101835.00;5129764;28;20507;-66
2021/07/09 10:20:45;;;;;;;31.90;14.18;;;;;;;21.13;62.63;101831.19;5094887;28;20564;-66
2021/07/09 10:23:19;;;;;;;27.30;14.30;;;;;;;21.02;62.23;101837.13;5111146;28;20656;-67
2021/07/09 10:25:49;;;;;;;33.00;13.82;;;;;;;21.13;61.91;101833.88;5110576;28;20084;-65
2021/07/09 10:28:20;;;;;;;26.23;13.23;;;;;;;21.17;62.23;101831.63;5094249;28;20035;-70
2021/07/09 10:30:47;;;;;;;27.40;13.25;;;;;;;20.99;61.22;101830.28;5116768;28;20163;-70
2021/07/09 10:33:32;;;;;;;27.35;13.10;;;;;;;21.13;61.64;101823.09;5111311;28;20043;-70
2021/07/09 10:36:06;;;;;;;30.33;13.13;;;;;;;21.20;61.64;101815.88;5119874;27;20361;-69
2021/07/09 10:38:36;;;;;;;25.88;12.82;;;;;;;21.51;60.40;101822.72;5096304;28;20048;-70
2021/07/09 10:41:19;;;;;;;21.55;11.52;;;;;;;21.63;59.40;101818.41;5061778;28;20090;-69
2021/07/09 10:44:13;;;;;;;19.63;11.18;;;;;;;21.91;57.97;101822.03;5083631;28;20126;-70
2021/07/09 10:46:40;;;;;;;19.42;9.75;;;;;;;22.16;56.45;101822.31;5114122;28;20447;-70
2021/07/09 10:49:07;;;;;;;26.27;10.15;;;;;;;22.20;54.97;101818.16;5097980;28;20400;-70
2021/07/09 10:51:53;;;;;;;23.83;10.48;;;;;;;22.01;54.75;101819.75;5112089;28;20043;-70
2021/07/09 10:54:27;;;;;;;23.13;10.80;;;;;;;22.16;53.86;101819.63;5113855;28;20046;-69
2021/07/09 10:57:17;;;;;;;33.67;19.98;;;;;;;22.08;54.25;101809.81;5115065;28;20044;-70
2021/07/09 11:00:23;;;;;;;25.88;12.88;;;;;;;22.08;54.88;101815.22;5114365;28;20044;-70
2021/07/09 11:02:58;;;;;;;21.60;10.63;;;;;;;21.79;54.93;101828.03;5096523;28;20043;-69
2021/07/09 11:11:12;;;;;;;19.55;8.73;;;;;;;21.74;52.49;101819.69;5109175;27;20466;-70
2021/07/09 11:19:04;;;;;;;20.02;10.50;;;;;;;22.37;52.26;101810.50;5130750;27;20189;-69
2021/07/09 11:26:52;;;;;;;16.77;9.18;;;;;;;22.38;52.34;101810.31;5129891;27;20353;-68
2021/07/09 11:32:10;;;;;;;20.73;9.77;;;;;;;22.58;51.22;101804.09;5105572;27;20506;-68
2021/07/09 11:34:40;;;;;;;19.10;8.40;;;;;;;22.78;50.22;101807.59;5055211;28;20040;-68
2021/07/09 11:37:12;;;;;;;19.02;8.45;;;;;;;23.01;49.37;101806.31;5078713;28;20214;-68
2021/07/09 11:39:41;;;;;;;17.73;9.32;;;;;;;22.97;47.87;101799.66;5089216;28;20052;-69
2021/07/09 11:42:13;;;;;;;16.58;8.20;;;;;;;23.22;49.19;101809.84;5038651;28;20052;-68